Flight Track Log - Related Links

Times and Time Zones

All times are in EDT time to prevent confusion due to time zone crossing. See the VOZ1486 flight status page for this flight to view local times or setup timezone preferences in your user account.

Time Position Orientation Groundspeed Altitude Reporting Facility
EDT Latitude Longitude Course Direction KTS MPH feet Rate Location/Type
Mon 02:43:00 AM -18.0484 122.1874 202° Southwest  Level FlightAware Approximate
Mon 02:43:11 AM -18.0504 122.1639 203° Southwest 16,500  Level Aus ATC (Calculated)
Mon 02:43:40 AM -18.0504 122.1639 203° Southwest 16,500 747 Level Aus ATC (Calculated)
Mon 02:45:00 AM -18.1868 122.1061 202° Southwest  Level FlightAware Approximate
Mon 02:46:00 AM -18.2890 122.0627 202° Southwest  Level FlightAware Approximate
Mon 02:46:00 AM -18.2065 122.0567 202° Southwest 16,500  Level Aus ATC (Calculated)
Mon 02:47:00 AM -18.3090 122.0139 202° Southwest  Level FlightAware Approximate
Mon 02:48:00 AM -18.4115 121.9711 202° Southwest  Level FlightAware Approximate
Mon 02:48:00 AM -18.3625 121.9493 201° Southwest 38,000  Level Aus ATC (Calculated)
Mon 02:49:00 AM -18.4653 121.9072 201° Southwest  Level FlightAware Approximate
Mon 02:49:03 AM -18.4534 121.9120 201° Southwest 38,000  Level Aus ATC (Calculated)
Mon 02:49:37 AM -18.5444 121.8747 201° Southwest 38,000 Level Aus ATC (Calculated)
Mon 02:51:00 AM -18.6538 121.8297 201° Southwest  Level FlightAware Approximate
Mon 02:52:00 AM -18.7893 121.7740 201° Southwest  Level FlightAware Approximate
Mon 02:53:00 AM -18.8920 121.7316 201° Southwest  Level FlightAware Approximate
Mon 02:53:37 AM -18.9989 121.6875 201° Southwest 38,000  Level Aus ATC (Calculated)
Mon 02:54:00 AM -18.9947 121.6892 201° Southwest  Level FlightAware Approximate
Mon 02:55:00 AM -19.1409 121.6288 201° Southwest  Level FlightAware Approximate
Mon 02:55:37 AM -19.1806 121.6124 201° Southwest 38,000  Level Aus ATC (Calculated)
Mon 02:57:00 AM -19.3227 121.5535 201° Southwest  Level FlightAware Approximate
Mon 02:57:37 AM -19.4531 121.4993 201° Southwest 38,000  Level Aus ATC (Calculated)
Mon 02:58:00 AM -19.4254 121.5109 201° Southwest  Level FlightAware Approximate
Mon 02:59:00 AM -19.5952 121.4402 201° Southwest  Level FlightAware Approximate
Mon 03:00:00 AM -19.6978 121.3975 201° Southwest  Level FlightAware Approximate
Mon 03:01:00 AM -19.8005 121.3547 201° Southwest  Level FlightAware Approximate
Mon 03:01:42 AM -19.8728 121.3244 202° Southwest 38,000  Level Aus ATC (Calculated)
Mon 03:03:00 AM -20.0113 121.2665 201° Southwest  Level FlightAware Approximate
Mon 03:03:49 AM -20.1550 121.2063 202° Southwest 38,000  Level Aus ATC (Calculated)
Mon 03:04:00 AM -20.1178 121.2219 201° Southwest  Level FlightAware Approximate
Mon 03:04:58 AM -20.2679 121.1589 202° Southwest 38,000  Level Aus ATC (Calculated)
Mon 03:05:00 AM -20.2810 121.1534 201° Southwest  Level FlightAware Approximate
Mon 03:06:00 AM -20.3875 121.1086 202° Southwest  Level FlightAware Approximate
Mon 03:07:00 AM -20.4844 121.0678 202° Southwest  Level FlightAware Approximate
Mon 03:07:31 AM -20.5499 121.0402 202° Southwest 38,000  Level Aus ATC (Calculated)
Mon 03:09:00 AM -20.7078 120.9735 202° Southwest  Level FlightAware Approximate
Mon 03:10:00 AM -20.8142 120.9285 202° Southwest  Level FlightAware Approximate
Mon 03:11:00 AM -20.9206 120.8834 202° Southwest  Level FlightAware Approximate
Mon 03:12:00 AM -21.0271 120.8383 202° Southwest  Level FlightAware Approximate
Mon 03:12:06 AM -21.1451 120.7849 202° Southwest 434 499 38,100  Level Aus ATC (RADAR)
Mon 03:13:36 AM -21.3206 120.7120 201° Southwest 445 512 38,100  Level Aus ATC (RADAR)
Mon 03:15:01 AM -21.4828 120.6422 202° Southwest 442 509 38,100  Level Aus ATC (RADAR)
Mon 03:16:36 AM -21.6656 120.5642 202° Southwest 444 511 38,100  Level Aus ATC (RADAR)
Mon 03:18:05 AM -21.8387 120.4910 201° Southwest 442 509 38,100  Level Aus ATC (RADAR)
Mon 03:19:40 AM -22.0189 120.4133 202° Southwest 439 505 38,100  Level Aus ATC (RADAR)
Mon 03:21:00 AM -22.1695 120.3484 202° Southwest 435 501 38,100  Level Aus ATC (RADAR)
Mon 03:22:34 AM -22.3455 120.2711 202° Southwest 430 495 38,100  Level Aus ATC (RADAR)
Mon 03:23:14 AM -22.4212 120.2393 201° Southwest 434 499 38,100  Level Aus ATC (RADAR)
Mon 03:23:29 AM -22.4503 120.2275 201° Southwest 437 503 38,100  Level Aus ATC (RADAR)
Mon 03:24:04 AM -22.5148 120.1988 202° Southwest 432 497 38,100  Level Aus ATC (RADAR)
Mon 03:24:44 AM -22.5892 120.1669 202° Southwest 430 495 38,100  Level Aus ATC (RADAR)
Mon 03:25:29 AM -22.6720 120.1304 202° Southwest 429 494 38,100  Level Aus ATC (RADAR)
Mon 03:26:24 AM -22.7730 120.0860 202° Southwest 426 490 38,100  Level Aus ATC (RADAR)
Mon 03:26:59 AM -22.8368 120.0583 202° Southwest 424 488 38,100  Level Aus ATC (RADAR)
Mon 03:27:49 AM -22.9287 120.0192 201° Southwest 423 487 38,100  Level Aus ATC (RADAR)
Mon 03:28:04 AM -22.9563 120.0076 201° Southwest 422 486 38,100  Level Aus ATC (RADAR)
Mon 03:28:39 AM -23.0182 119.9802 202° Southwest 416 479 38,100  Level Aus ATC (RADAR)
Mon 03:29:34 AM -23.1141 119.9378 202° Southwest 407 468 38,100  Level Aus ATC (RADAR)
Mon 03:30:39 AM -23.2273 119.8883 202° Southwest 405 466 38,100  Level Aus ATC (RADAR)
Mon 03:31:24 AM -23.3041 119.8542 202° Southwest 400 460 38,100  Level Aus ATC (RADAR)
Mon 03:31:48 AM -23.3494 119.8350 201° Southwest 408 470 38,100  Level Aus ATC (RADAR)
Mon 03:32:23 AM -23.4092 119.8081 202° Southwest 403 464 38,100  Level Aus ATC (RADAR)
Mon 03:33:28 AM -23.5253 119.7600 201° Southwest 409 471 38,100  Level Aus ATC (RADAR)
Mon 03:34:04 AM -23.5872 119.7341 201° Southwest 410 472 38,100  Level Aus ATC (RADAR)
Mon 03:36:03 AM -23.7984 119.6456 201° Southwest 411 473 38,100  Level Aus ATC (RADAR)
Mon 03:36:43 AM -23.8680 119.6163 201° Southwest 407 468 38,100  Level Aus ATC (RADAR)
Mon 03:37:03 AM -23.9040 119.6013 201° Southwest 410 472 38,100  Level Aus ATC (RADAR)
Mon 03:37:33 AM -23.9568 119.5791 201° Southwest 408 470 38,100  Level Aus ATC (RADAR)
Mon 03:38:18 AM -24.0371 119.5453 201° Southwest 410 472 38,100  Level Aus ATC (RADAR)
Mon 03:38:58 AM -24.1091 119.5150 201° Southwest 414 476 38,100  Level Aus ATC (RADAR)
Mon 03:39:48 AM -24.1982 119.4775 201° Southwest 414 476 38,100  Level Aus ATC (RADAR)
Mon 03:40:03 AM -24.2233 119.4673 200° South 406 467 38,100  Level Aus ATC (RADAR)
Mon 03:41:22 AM -24.3667 119.4067 201° Southwest 413 475 38,100  Level Aus ATC (RADAR)
Mon 03:41:47 AM -24.4112 119.3880 201° Southwest 413 475 38,100  Level Aus ATC (RADAR)
Mon 03:42:22 AM -24.4742 119.3611 201° Southwest 415 478 38,100  Level Aus ATC (RADAR)
Mon 03:43:22 AM -24.5794 119.3171 201° Southwest 406 467 38,100  Level Aus ATC (RADAR)
Mon 03:43:57 AM -24.6418 119.2906 201° Southwest 409 471 38,100  Level Aus ATC (RADAR)
Mon 03:44:52 AM -24.7401 119.2488 201° Southwest 413 475 38,100  Level Aus ATC (RADAR)
Mon 03:46:17 AM -24.8923 119.1841 201° Southwest 416 479 38,100  Level Aus ATC (RADAR)
Mon 03:47:17 AM -25.0006 119.1373 201° Southwest 417 480 38,100  Level Aus ATC (RADAR)
Mon 03:47:32 AM -25.0266 119.1267 200° South 412 474 38,100  Level Aus ATC (RADAR)
Mon 03:48:27 AM -25.1244 119.0850 201° Southwest 412 474 38,100  Level Aus ATC (RADAR)
Mon 03:48:42 AM -25.1512 119.0735 201° Southwest 414 476 38,100  Level Aus ATC (RADAR)
Mon 03:49:17 AM -25.2144 119.0457 202° Southwest 417 480 38,100  Level Aus ATC (RADAR)
Mon 03:50:17 AM -25.3201 119.0011 201° Southwest 408 470 38,100  Level Aus ATC (RADAR)
Mon 03:51:02 AM -25.3995 118.9666 201° Southwest 412 474 38,100  Level Aus ATC (RADAR)
Mon 03:51:51 AM -25.4862 118.9289 201° Southwest 403 464 38,100  Level Aus ATC (RADAR)
Mon 03:52:31 AM -25.5547 118.9004 201° Southwest 398 458 38,100  Level Aus ATC (RADAR)
Mon 03:53:41 AM -25.6763 118.8469 202° Southwest 401 461 38,100  Level Aus ATC (RADAR)
Mon 03:54:21 AM -25.7449 118.8178 201° Southwest 397 457 38,100  Level Aus ATC (RADAR)
Mon 03:55:16 AM -25.8398 118.7765 201° Southwest 400 460 38,100  Level Aus ATC (RADAR)
Mon 03:56:31 AM -25.9684 118.7202 201° Southwest 400 460 38,100  Level Aus ATC (RADAR)
Mon 03:56:46 AM -25.9941 118.7099 200° South 399 459 38,100  Level Aus ATC (RADAR)
Mon 03:57:26 AM -26.0631 118.6790 202° Southwest 400 460 38,100  Level Aus ATC (RADAR)
Mon 03:58:26 AM -26.1653 118.6341 201° Southwest 397 457 38,100  Level Aus ATC (RADAR)
Mon 03:59:06 AM -26.2341 118.6043 201° Southwest 400 460 38,100  Level Aus ATC (RADAR)
Mon 04:00:01 AM -26.3290 118.5634 201° Southwest 400 460 38,100  Level Aus ATC (RADAR)
Mon 04:00:50 AM -26.4141 118.5291 200° South 394 453 38,100  Level Aus ATC (RADAR)
Mon 04:01:16 AM -26.4564 118.5128 199° South 389 448 38,100  Level Aus ATC (RADAR)
Mon 04:04:35 AM -26.8215 118.3503 202° Southwest 38,000  Descending Aus ATC (Calculated)
Mon 04:06:00 AM -26.9679 118.2856 201° Southwest  Level Estimated
Mon 04:07:00 AM -27.0710 118.2393 202° Southwest  Level FlightAware Approximate
Mon 04:08:00 AM -27.1742 118.1928 202° Southwest  Level FlightAware Approximate
Mon 04:09:00 AM -27.2773 118.1463 202° Southwest  Level FlightAware Approximate
Mon 04:10:00 AM -27.3804 118.0998 202° Southwest  Level FlightAware Approximate
Mon 04:10:13 AM -27.4371 118.0737 202° Southwest 38,000  Level Aus ATC (Calculated)
Mon 04:11:31 AM -27.5567 118.0196 202° Southwest 38,000 15 Level Aus ATC (Calculated)
Mon 04:13:00 AM -27.7096 117.9502 202° Southwest  Level FlightAware Approximate
Mon 04:13:03 AM -27.7361 117.9382 203° Southwest 38,000  Level Aus ATC (Calculated)
Mon 04:15:00 AM -27.9370 117.8466 202° Southwest  Level FlightAware Approximate
Mon 04:15:01 AM -27.9154 117.8565 204° Southwest 37,200  Level Aus ATC (Calculated)
Mon 04:15:31 AM -27.9883 117.8235 206° Southwest 37,200 458 Level Aus ATC (Calculated)
Mon 04:16:59 AM -28.0746 117.7764 22° Northeast 396 456 38,100 524 Climbing Aus ATC (RADAR)
Mon 04:17:00 AM -27.8353 117.8927 22° Northeast  Level FlightAware Approximate
Mon 04:17:14 AM -28.0998 117.7646 202° Southwest 394 453 38,100  Level Aus ATC (RADAR)
Mon 04:17:51 AM -28.1589 117.7388 201° Southwest 392 451 38,100  Level Aus ATC (RADAR)
Mon 04:19:04 AM -28.2823 117.6775 204° Southwest 387 445 38,100  Level Aus ATC (RADAR)
Mon 04:19:39 AM -28.3398 117.6469 205° Southwest 390 449 38,100  Level Aus ATC (RADAR)
Mon 04:20:29 AM -28.4242 117.6095 201° Southwest 391 450 38,100  Level Aus ATC (RADAR)
Mon 04:21:39 AM -28.5422 117.5583 201° Southwest 391 450 38,100  Level Aus ATC (RADAR)
Mon 04:22:18 AM -28.6091 117.5291 201° Southwest 384 442 38,100  Level Aus ATC (RADAR)
Mon 04:23:08 AM -28.6928 117.4907 202° Southwest 385 443 38,100  Level Aus ATC (RADAR)
Mon 04:23:58 AM -28.7763 117.4517 202° Southwest 389 448 38,100  Level Aus ATC (RADAR)
Mon 04:24:33 AM -28.8361 117.4255 201° Southwest 395 455 38,100  Level Aus ATC (RADAR)
Mon 04:25:38 AM -28.9469 117.3790 200° South 391 450 38,100  Level Aus ATC (RADAR)
Mon 04:25:58 AM -28.9793 117.3620 205° Southwest 387 445 38,100 60 Level Aus ATC (RADAR)
Mon 04:27:18 AM -29.1132 117.2997 202° Southwest 389 448 38,200 63 Climbing Aus ATC (RADAR)
Mon 04:27:33 AM -29.1383 117.2887 201° Southwest 386 444 38,200  Level Aus ATC (RADAR)
Mon 04:28:08 AM -29.1962 117.2606 203° Southwest 388 447 38,200  Level Aus ATC (RADAR)
Mon 04:29:03 AM -29.2890 117.2224 200° South 385 443 38,200  Level Aus ATC (RADAR)
Mon 04:29:38 AM -29.3477 117.1938 203° Southwest 389 448 38,200  Level Aus ATC (RADAR)
Mon 04:30:53 AM -29.4748 117.1353 202° Southwest 391 450 38,200  Level Aus ATC (RADAR)
Mon 04:31:57 AM -29.5820 117.0845 202° Southwest 385 443 38,200  Level Aus ATC (RADAR)
Mon 04:32:13 AM -29.6066 117.0740 200° South 380 437 38,200  Level Aus ATC (RADAR)
Mon 04:32:47 AM -29.6643 117.0469 202° Southwest 383 441 38,200 -212 Level Aus ATC (RADAR)
Mon 04:33:38 AM -29.7463 117.0073 203° Southwest 380 437 37,900 -429 Descending Aus ATC (RADAR)
Mon 04:33:57 AM -29.7785 116.9932 201° Southwest 375 432 37,700 -667 Descending Aus ATC (RADAR)
Mon 04:34:32 AM -29.8334 116.9679 202° Southwest 365 420 37,300 -600 Descending Aus ATC (RADAR)
Mon 04:35:27 AM -29.9181 116.9289 202° Southwest 362 417 36,800 -593 Descending Aus ATC (RADAR)
Mon 04:36:03 AM -29.9744 116.9031 202° Southwest 369 425 36,400 -629 Descending Aus ATC (RADAR)
Mon 04:37:12 AM -30.0863 116.8497 202° Southwest 373 429 35,700 -571 Descending Aus ATC (RADAR)
Mon 04:37:27 AM -30.1103 116.8376 203° Southwest 376 433 35,600 -706 Descending Aus ATC (RADAR)
Mon 04:38:03 AM -30.1671 116.8118 201° Southwest 376 433 35,100 -1,067 Descending Aus ATC (RADAR)
Mon 04:38:57 AM -30.2551 116.7698 202° Southwest 370 426 34,000 -1,468 Descending Aus ATC (RADAR)
Mon 04:39:37 AM -30.3186 116.7399 202° Southwest 367 422 32,800 -1,705 Descending Aus ATC (RADAR)
Mon 04:40:32 AM -30.4087 116.6981 202° Southwest 378 435 31,300 -1,835 Descending Aus ATC (RADAR)
Mon 04:41:02 AM -30.4565 116.6750 203° Southwest 372 428 30,200 -2,968 Descending Aus ATC (RADAR)
Mon 04:42:07 AM -30.5626 116.6260 202° Southwest 381 438 26,600 -2,895 Descending Aus ATC (RADAR)
Mon 04:42:56 AM -30.6463 116.5943 198° South 376 433 24,700 -2,127 Descending Aus ATC (RADAR)
Mon 04:43:57 AM -30.7429 116.5559 199° South 370 426 22,700 -1,958 Descending Aus ATC (RADAR)
Mon 04:44:31 AM -30.8012 116.5330 199° South 378 435 21,600 -1,867 Descending Aus ATC (RADAR)
Mon 04:45:27 AM -30.8901 116.4992 198° South 364 419 19,900 -1,761 Descending Aus ATC (RADAR)
Mon 04:46:03 AM -30.9452 116.4782 198° South 357 411 18,900 -1,706 Descending Aus ATC (RADAR)
Mon 04:47:16 AM -31.0595 116.4333 199° South 345 397 16,800 -1,753 Descending Aus ATC (RADAR)
Mon 04:47:32 AM -31.0829 116.4239 199° South 351 404 16,300 -1,800 Descending Aus ATC (RADAR)
Mon 04:48:06 AM -31.1384 116.4025 198° South 357 411 15,300 -1,787 Descending Aus ATC (RADAR)
Mon 04:49:06 AM -31.2311 116.3661 199° South 348 400 13,500 -1,768 Descending Aus ATC (RADAR)
Mon 04:49:41 AM -31.2855 116.3444 199° South 355 409 12,500 -1,768 Descending Aus ATC (RADAR)
Mon 04:50:41 AM -31.3798 116.3078 198° South 355 409 10,700 -1,832 Descending Aus ATC (RADAR)
Mon 04:51:16 AM -31.4319 116.2837 202° Southwest 344 396 9,600 -1,565 Descending Aus ATC (RADAR)
Mon 04:52:36 AM -31.5296 116.2214 209° Southwest 285 328 7,700 -1,515 Descending Aus ATC (RADAR)
Mon 04:52:55 AM -31.5525 116.2065 209° Southwest 281 323 7,100 -1,017 Descending Aus ATC (RADAR)
Mon 04:53:35 AM -31.5950 116.1784 209° Southwest 259 298 6,700 -1,000 Descending Aus ATC (RADAR)
Mon 04:54:25 AM -31.6412 116.1392 216° Southwest 244 281 5,600 -1,333 Descending Aus ATC (RADAR)
Mon 04:55:05 AM -31.6782 116.1080 216° Southwest 243 280 4,700 -1,341 Descending Aus ATC (RADAR)
Mon 04:55:50 AM -31.7195 116.0737 215° Southwest 241 277 3,700 -900 Descending Aus ATC (RADAR)
Mon 04:56:25 AM -31.7494 116.0484 216° Southwest 224 258 3,500 -629 Descending Aus ATC (RADAR)
Mon 04:57:35 AM -31.8015 116.0056 215° Southwest 188 216 2,600 -847 Descending Aus ATC (RADAR)
Mon 04:57:50 AM -31.8138 116.0014 196° South 184 212 2,300 -960 Descending Aus ATC (RADAR)
Mon 04:58:25 AM -31.8407 115.9945 192° South 170 196 1,800 -758 Descending Aus ATC (RADAR)
Mon 04:59:25 AM -31.8763 115.9838 194° South 124 143 1,100 -653 Descending Aus ATC (RADAR)
Mon 05:00:06 AM -31.8979 115.9774 194° South 120 138 700 -600 Descending Aus ATC (RADAR)
Mon 05:01:05 AM -31.9309 115.9679 194° South 122 140 100 -400 Descending Aus ATC (RADAR)
Mon 05:01:36 AM -31.9425 115.9640 196° South 81 93 100  Level Aus ATC (RADAR)

Login

Don't have an account? Register now (free) for customized features, flight alerts, and more!